Tuesday, January 23, 2018, 11:59 PM GMT
Back to Local

CYGK, Kingston, Ont.

Location: , , Canada Lat: 44.217
Local Time: 11:59 PM GMT (23:59 GMT) Lon: -76.6
Time Zone: GMT Elev: 305 ft

Show me the last for .
Show Decoded

2018-01-23 23:00 METAR CYGK 232300Z 24017G26KT 15SM SCT044 BKN080 OVC130 03/M00 A2951 RMK
                 SC4AC2AC2 SLP999 =
2018-01-23 22:00 METAR CYGK 232200Z 24017G23KT 15SM FEW012 FEW080 OVC130 03/00 A2950 RMK
                 SF1AC2AC6 SF TR SLP994 =
2018-01-23 21:00 METAR CYGK 232100Z 24016G22KT 15SM FEW009 BKN050 OVC080 04/01 A2948 RMK
                 SF1SC6AC2 SF TR SLP987 =
2018-01-23 20:00 METAR CYGK 232000Z 24016G22KT 15SM FEW008 SCT037 BKN080 05/02 A2945 RMK
                 SF1SC3AC4 SF TR SLP979 =
2018-01-23 19:26 METAR CYGK 231926Z 21006KT 7SM FEW008 FEW015 SCT060 BKN083 03/02 A2945 RMK
                 SF1SC1SC2AC4 SF TR SLP977 =
2018-01-23 19:00 METAR CYGK 231900Z 20006KT 3SM -RA BR FEW008 FEW015 BKN038 OVC060 03/02 A2945
                 RMK SF1SC2SC4SC2 SF TR SLP977 =
2018-01-23 18:47 METAR CYGK 231847Z 20009KT 3SM -RA FEW015 BKN035 OVC050 04/03 A2946 RMK
                 SC2SC4SC2 SLP980 =
2018-01-23 18:00 METAR CYGK 231800Z 20008KT 8SM FEW024 SCT035 BKN060 03/02 A2945 RMK SF1SC2SC4
                 SLP977 =
2018-01-23 17:40 METAR CYGK 231740Z 18010KT 8SM FEW020 BKN058 BKN080 03/03 A2946 RMK SC2SC3AC2
                 VIS LWR N SLP982 =
2018-01-23 17:18 METAR CYGK 231718Z CCA 19009KT 6SM -RA BR SCT030 BKN077 03/03 A2948 RMK SC4AC3
                 SLP986 =
2018-01-23 17:00 METAR CYGK 231700Z 19011KT 3SM BR SCT025 BKN090 03/03 A2949 RMK SC4AC3 SLP991 =
2018-01-23 16:00 METAR CYGK 231600Z 23004KT 3SM BR SCT034 OVC100 03/02 A2952 RMK SC4AC4 SLP002 =
2018-01-23 15:00 METAR CYGK 231500Z 16011KT 8SM SCT022 OVC110 03/02 A2950 RMK SC4AC4 SLP997 =
2018-01-23 14:00 METAR CYGK 231400Z 17010KT 9SM BKN026 OVC100 03/02 A2952 RMK SC6AC2 SLP003 =
2018-01-23 13:00 METAR CYGK 231300Z 17013KT 6SM BR SCT020 BKN110 03/02 A2954 RMK SC3AC4 PRESRR
                 SLP010 =
2018-01-23 12:51 METAR CYGK 231251Z 17014KT 8SM SCT020 OVC100 03/02 A2955 RMK SC4AC4 PRESRR
                 SLP011 =
2018-01-23 12:00 METAR CYGK 231200Z 18017KT 5SM -RA BR BKN023 OVC051 03/02 A2956 RMK SC7SC1
                 SLP017 =
2018-01-23 11:00 METAR CYGK 231100Z 31004KT 220V340 10SM -RA SCT018 OVC032 01/01 A2958 RMK SC3SC5
                 SLP023 =
2018-01-23 04:00 METAR CYGK 230400Z 03009KT 7SM -FZRA FEW003 OVC005 M04/M05 A2982 RMK SF2ST6 LAST
                 STFD OBS / NEXT 231100 UTC SLP105 =
2018-01-23 03:00 METAR CYGK 230300Z 04012KT 8SM -FZRA OVC005 M04/M05 A2984 RMK SF8 PRESFR SLP111
                 =
2018-01-23 02:49 METAR CYGK 230249Z 03009KT 010V090 8SM -FZRA OVC005 M04/M05 A2985 RMK SF8 SLP116
                 =
2018-01-23 02:00 METAR CYGK 230200Z 04012KT 15SM OVC006 M04/M05 A2988 RMK ST8 SLP124 =
2018-01-23 01:26 METAR CYGK 230126Z 05011G16KT 15SM OVC006 M04/M05 A2989 RMK ST8 SLP128 =
2018-01-23 01:00 METAR CYGK 230100Z 04013KT 15SM -FZRA OVC007 M04/M05 A2990 RMK ST8 PCPN VERY LGT
                 SLP132 =
2018-01-23 00:00 METAR CYGK 230000Z 05016G22KT 11SM -FZRA OVC007 M04/M05 A2992 RMK ST8 PRESFR
                 SLP137 =

Support USWX by starting your Amazon purchase here.